Time,TemperatureF,DewpointF,PressureIn,WindDirection,WindDirectionDegrees,WindSpeedMPH,WindSpeedGustMPH,Humidity,HourlyPrecipIn,Conditions,Clouds,dailyrainin,SolarRadiationWatts/m^2,SoftwareType,DateUTC
2013-04-21 00:09:00,45.4,18.0,29.83,NNW,336,0.0,-999.0,33,-99.99,,,0.00,0,weatherlink.com 1.10,2013-04-21 06:09:00,
2013-04-21 00:24:00,45.2,17.0,29.83,NNW,336,0.0,-999.0,33,-99.99,,,0.00,0,weatherlink.com 1.10,2013-04-21 06:24:00,
2013-04-21 00:39:00,45.3,18.0,29.84,NNW,336,0.0,-999.0,34,-99.99,,,0.00,0,weatherlink.com 1.10,2013-04-21 06:39:00,
2013-04-21 00:54:00,45.4,18.0,29.85,NNW,336,0.0,-999.0,33,-99.99,,,0.00,0,weatherlink.com 1.10,2013-04-21 06:54:00,
2013-04-21 01:09:00,44.6,18.0,29.85,NNW,336,0.0,-999.0,34,-99.99,,,0.00,0,weatherlink.com 1.10,2013-04-21 07:09:00,
2013-04-21 01:24:00,44.2,18.0,29.85,NNW,336,0.0,-999.0,35,-99.99,,,0.00,0,weatherlink.com 1.10,2013-04-21 07:24:00,
2013-04-21 01:39:00,43.9,18.0,29.85,NNW,336,0.0,-999.0,35,-99.99,,,0.00,0,weatherlink.com 1.10,2013-04-21 07:39:00,
2013-04-21 01:54:00,43.5,18.0,29.86,NNW,336,0.0,-999.0,36,-99.99,,,0.00,0,weatherlink.com 1.10,2013-04-21 07:54:00,
2013-04-21 02:09:00,43.0,18.0,29.86,NNW,336,0.0,-999.0,36,-99.99,,,0.00,0,weatherlink.com 1.10,2013-04-21 08:09:00,
2013-04-21 02:24:00,43.6,19.0,29.86,NNW,338,0.0,-999.0,37,-99.99,,,0.00,0,weatherlink.com 1.10,2013-04-21 08:24:00,
2013-04-21 02:39:00,44.3,19.0,29.86,NNW,338,0.0,-999.0,36,-99.99,,,0.00,0,weatherlink.com 1.10,2013-04-21 08:39:00,
2013-04-21 02:54:00,44.7,19.0,29.86,NNW,342,0.0,-999.0,36,-99.99,,,0.00,0,weatherlink.com 1.10,2013-04-21 08:54:00,
2013-04-21 03:10:00,44.6,20.0,29.86,NNW,339,2.0,-999.0,37,-99.99,,,0.00,0,weatherlink.com 1.10,2013-04-21 09:10:00,
2013-04-21 03:25:00,44.2,19.0,29.86,NNW,338,0.0,-999.0,37,-99.99,,,0.00,0,weatherlink.com 1.10,2013-04-21 09:25:00,
2013-04-21 03:40:00,44.2,20.0,29.86,NNW,336,0.0,-999.0,38,-99.99,,,0.00,0,weatherlink.com 1.10,2013-04-21 09:40:00,
2013-04-21 03:55:00,44.1,20.0,29.86,NNW,343,0.0,-999.0,38,-99.99,,,0.00,0,weatherlink.com 1.10,2013-04-21 09:55:00,
2013-04-21 04:10:00,43.2,19.0,29.87,NNW,345,0.0,-999.0,38,-99.99,,,0.00,0,weatherlink.com 1.10,2013-04-21 10:10:00,
2013-04-21 04:25:00,42.7,19.0,29.87,NNW,334,0.0,-999.0,39,-99.99,,,0.00,0,weatherlink.com 1.10,2013-04-21 10:25:00,
2013-04-21 04:40:00,42.4,19.0,29.88,NNW,335,0.0,-999.0,39,-99.99,,,0.00,0,weatherlink.com 1.10,2013-04-21 10:40:00,
2013-04-21 04:55:00,41.8,19.0,29.88,NNW,331,5.0,-999.0,40,-99.99,,,0.00,0,weatherlink.com 1.10,2013-04-21 10:55:00,
2013-04-21 05:10:00,41.1,18.0,29.88,NW,325,0.0,-999.0,40,-99.99,,,0.00,0,weatherlink.com 1.10,2013-04-21 11:10:00,
2013-04-21 05:25:00,40.4,18.0,29.89,NNW,340,0.0,-999.0,41,-99.99,,,0.00,0,weatherlink.com 1.10,2013-04-21 11:25:00,
2013-04-21 05:40:00,39.7,18.0,29.89,North,360,0.0,-999.0,42,-99.99,,,0.00,0,weatherlink.com 1.10,2013-04-21 11:40:00,
2013-04-21 05:55:00,39.5,19.0,29.90,North,11,5.0,-999.0,43,-99.99,,,0.00,0,weatherlink.com 1.10,2013-04-21 11:55:00,
2013-04-21 06:10:00,39.7,19.0,29.91,NNW,337,0.0,-999.0,43,-99.99,,,0.00,0,weatherlink.com 1.10,2013-04-21 12:10:00,
2013-04-21 06:25:00,39.5,19.0,29.91,NNW,341,0.0,-999.0,43,-99.99,,,0.00,0,weatherlink.com 1.10,2013-04-21 12:25:00,
2013-04-21 06:40:00,40.0,18.0,29.91,NNW,340,0.0,-999.0,42,-99.99,,,0.00,9,weatherlink.com 1.10,2013-04-21 12:40:00,
2013-04-21 06:55:00,40.4,19.0,29.92,NNW,338,2.0,-999.0,42,-99.99,,,0.00,14,weatherlink.com 1.10,2013-04-21 12:55:00,
2013-04-21 07:10:00,41.5,19.0,29.93,NNW,332,0.0,-999.0,40,-99.99,,,0.00,21,weatherlink.com 1.10,2013-04-21 13:10:00,
2013-04-21 07:25:00,41.9,19.0,29.93,NNW,330,0.0,-999.0,40,-99.99,,,0.00,33,weatherlink.com 1.10,2013-04-21 13:25:00,
2013-04-21 07:40:00,42.5,19.0,29.93,NW,307,0.0,-999.0,39,-99.99,,,0.00,46,weatherlink.com 1.10,2013-04-21 13:40:00,
2013-04-21 07:55:00,43.6,19.0,29.93,NNW,329,1.0,-999.0,38,-99.99,,,0.00,54,weatherlink.com 1.10,2013-04-21 13:55:00,
2013-04-21 08:10:00,45.5,20.0,29.93,NNW,335,4.0,-999.0,37,-99.99,,,0.00,292,weatherlink.com 1.10,2013-04-21 14:10:00,
2013-04-21 08:25:00,47.7,21.0,29.93,NNW,338,5.0,-999.0,35,-99.99,,,0.00,346,weatherlink.com 1.10,2013-04-21 14:25:00,
2013-04-21 08:40:00,49.5,21.0,29.93,NNW,342,0.0,-999.0,33,-99.99,,,0.00,403,weatherlink.com 1.10,2013-04-21 14:40:00,
2013-04-21 08:55:00,52.1,22.0,29.94,WNW,303,0.0,-999.0,31,-99.99,,,0.00,454,weatherlink.com 1.10,2013-04-21 14:55:00,
2013-04-21 09:11:00,55.4,23.0,29.93,NW,321,0.0,-999.0,28,-99.99,,,0.00,508,weatherlink.com 1.10,2013-04-21 15:11:00,
2013-04-21 09:26:00,57.0,22.0,29.94,North,9,0.0,-999.0,26,-99.99,,,0.00,559,weatherlink.com 1.10,2013-04-21 15:26:00,
2013-04-21 09:41:00,59.5,23.0,29.94,NW,318,4.0,-999.0,25,-99.99,,,0.00,603,weatherlink.com 1.10,2013-04-21 15:41:00,
2013-04-21 09:56:00,60.8,25.0,29.94,WNW,287,2.0,-999.0,25,-99.99,,,0.00,649,weatherlink.com 1.10,2013-04-21 15:56:00,
2013-04-21 10:11:00,61.4,23.0,29.93,NNW,333,6.0,-999.0,23,-99.99,,,0.00,694,weatherlink.com 1.10,2013-04-21 16:11:00,
2013-04-21 10:26:00,62.4,24.0,29.93,WNW,293,0.0,-999.0,23,-99.99,,,0.00,737,weatherlink.com 1.10,2013-04-21 16:26:00,
2013-04-21 10:41:00,61.8,23.0,29.93,NNW,344,4.0,-999.0,23,-99.99,,,0.00,775,weatherlink.com 1.10,2013-04-21 16:41:00,
2013-04-21 10:56:00,63.0,23.0,29.93,NW,314,3.0,-999.0,22,-99.99,,,0.00,803,weatherlink.com 1.10,2013-04-21 16:56:00,
2013-04-21 11:11:00,63.7,22.0,29.92,WNW,292,5.0,-999.0,20,-99.99,,,0.00,831,weatherlink.com 1.10,2013-04-21 17:11:00,
2013-04-21 11:26:00,63.0,21.0,29.92,NNW,342,4.0,-999.0,20,-99.99,,,0.00,860,weatherlink.com 1.10,2013-04-21 17:26:00,
2013-04-21 11:41:00,65.8,21.0,29.91,NW,319,3.0,-999.0,18,-99.99,,,0.00,888,weatherlink.com 1.10,2013-04-21 17:41:00,
2013-04-21 11:56:00,65.6,21.0,29.91,NNW,344,8.0,-999.0,18,-99.99,,,0.00,911,weatherlink.com 1.10,2013-04-21 17:56:00,
2013-04-21 12:11:00,65.3,19.0,29.89,NW,310,6.0,-999.0,17,-99.99,,,0.00,926,weatherlink.com 1.10,2013-04-21 18:11:00,
2013-04-21 12:26:00,67.9,20.0,29.89,NW,306,3.0,-999.0,16,-99.99,,,0.00,940,weatherlink.com 1.10,2013-04-21 18:26:00,
2013-04-21 12:41:00,67.3,19.0,29.88,NNW,328,4.0,-999.0,16,-99.99,,,0.00,946,weatherlink.com 1.10,2013-04-21 18:41:00,
2013-04-21 12:56:00,70.4,20.0,29.87,WNW,300,7.0,-999.0,15,-99.99,,,0.00,949,weatherlink.com 1.10,2013-04-21 18:56:00,
2013-04-21 13:11:00,70.8,17.0,29.85,NW,317,8.0,-999.0,13,-99.99,,,0.00,954,weatherlink.com 1.10,2013-04-21 19:11:00,
2013-04-21 13:27:00,70.0,17.0,29.84,NW,317,2.0,-999.0,13,-99.99,,,0.00,947,weatherlink.com 1.10,2013-04-21 19:27:00,
2013-04-21 13:42:00,71.5,12.0,29.84,WNW,287,1.0,-999.0,10,-99.99,,,0.00,940,weatherlink.com 1.10,2013-04-21 19:42:00,
2013-04-21 13:57:00,71.4,12.0,29.83,NW,316,6.0,-999.0,10,-99.99,,,0.00,928,weatherlink.com 1.10,2013-04-21 19:57:00,
2013-04-21 14:12:00,70.9,14.0,29.82,NNW,341,17.0,-999.0,11,-99.99,,,0.00,912,weatherlink.com 1.10,2013-04-21 20:12:00,
2013-04-21 14:27:00,73.9,11.0,29.82,NNW,335,0.0,-999.0,9,-99.99,,,0.00,886,weatherlink.com 1.10,2013-04-21 20:27:00,
2013-04-21 14:42:00,74.2,6.0,29.81,North,355,2.0,-999.0,7,-99.99,,,0.00,863,weatherlink.com 1.10,2013-04-21 20:42:00,
2013-04-21 14:57:00,72.9,8.0,29.80,NW,314,3.0,-999.0,8,-99.99,,,0.00,837,weatherlink.com 1.10,2013-04-21 20:57:00,
2013-04-21 15:12:00,74.9,3.0,29.80,WNW,294,4.0,-999.0,6,-99.99,,,0.00,800,weatherlink.com 1.10,2013-04-21 21:12:00,
2013-04-21 15:27:00,72.6,5.0,29.79,NW,304,3.0,-999.0,7,-99.99,,,0.00,58,weatherlink.com 1.10,2013-04-21 21:27:00,
2013-04-21 15:42:00,72.5,1.0,29.78,NW,309,5.0,-999.0,6,-99.99,,,0.00,46,weatherlink.com 1.10,2013-04-21 21:42:00,
2013-04-21 15:57:00,72.4,1.0,29.78,NNW,331,6.0,-999.0,6,-99.99,,,0.00,42,weatherlink.com 1.10,2013-04-21 21:57:00,
2013-04-21 16:12:00,72.0,-3.0,29.77,WNW,299,5.0,-999.0,5,-99.99,,,0.00,39,weatherlink.com 1.10,2013-04-21 22:12:00,
2013-04-21 16:27:00,71.9,-3.0,29.77,WNW,295,9.0,-999.0,5,-99.99,,,0.00,37,weatherlink.com 1.10,2013-04-21 22:27:00,
2013-04-21 16:42:00,71.9,-3.0,29.77,WNW,292,8.0,-999.0,5,-99.99,,,0.00,33,weatherlink.com 1.10,2013-04-21 22:42:00,
2013-04-21 16:57:00,71.8,-3.0,29.76,NW,318,5.0,-999.0,5,-99.99,,,0.00,32,weatherlink.com 1.10,2013-04-21 22:57:00,
2013-04-21 17:12:00,71.1,-4.0,29.76,NNW,333,3.0,-999.0,5,-99.99,,,0.00,28,weatherlink.com 1.10,2013-04-21 23:12:00,
2013-04-21 17:27:00,71.0,0.0,29.76,NNW,342,6.0,-999.0,6,-99.99,,,0.00,26,weatherlink.com 1.10,2013-04-21 23:27:00,
2013-04-21 17:42:00,70.4,0.0,29.76,NNW,340,12.0,-999.0,6,-99.99,,,0.00,25,weatherlink.com 1.10,2013-04-21 23:42:00,
2013-04-21 17:57:00,70.5,3.0,29.75,NW,308,6.0,-999.0,7,-99.99,,,0.00,21,weatherlink.com 1.10,2013-04-21 23:57:00,
2013-04-21 18:12:00,69.8,6.0,29.74,NW,316,1.0,-999.0,8,-99.99,,,0.00,19,weatherlink.com 1.10,2013-04-22 00:12:00,
2013-04-21 18:27:00,69.5,5.0,29.75,NW,312,3.0,-999.0,8,-99.99,,,0.00,18,weatherlink.com 1.10,2013-04-22 00:27:00,
2013-04-21 18:43:00,69.1,8.0,29.75,North,349,9.0,-999.0,9,-99.99,,,0.00,16,weatherlink.com 1.10,2013-04-22 00:43:00,
2013-04-21 18:58:00,68.7,10.0,29.75,NW,322,7.0,-999.0,10,-99.99,,,0.00,14,weatherlink.com 1.10,2013-04-22 00:58:00,
2013-04-21 19:13:00,68.1,11.0,29.75,NW,321,3.0,-999.0,11,-99.99,,,0.00,11,weatherlink.com 1.10,2013-04-22 01:13:00,
2013-04-21 19:28:00,67.5,11.0,29.75,NNW,344,5.0,-999.0,11,-99.99,,,0.00,7,weatherlink.com 1.10,2013-04-22 01:28:00,
2013-04-21 19:43:00,66.5,12.0,29.75,NNW,335,2.0,-999.0,12,-99.99,,,0.00,0,weatherlink.com 1.10,2013-04-22 01:43:00,
2013-04-21 19:58:00,65.5,13.0,29.75,NW,319,1.0,-999.0,13,-99.99,,,0.00,0,weatherlink.com 1.10,2013-04-22 01:58:00,
2013-04-21 20:13:00,64.6,12.0,29.75,NNE,15,9.0,-999.0,13,-99.99,,,0.00,0,weatherlink.com 1.10,2013-04-22 02:13:00,
2013-04-21 20:28:00,63.9,12.0,29.76,NNW,331,2.0,-999.0,13,-99.99,,,0.00,0,weatherlink.com 1.10,2013-04-22 02:28:00,
2013-04-21 20:43:00,62.9,13.0,29.76,WNW,302,1.0,-999.0,14,-99.99,,,0.00,0,weatherlink.com 1.10,2013-04-22 02:43:00,
2013-04-21 20:58:00,62.3,14.0,29.76,NW,314,2.0,-999.0,15,-99.99,,,0.00,0,weatherlink.com 1.10,2013-04-22 02:58:00,
2013-04-21 21:13:00,61.9,14.0,29.77,NW,309,4.0,-999.0,15,-99.99,,,0.00,0,weatherlink.com 1.10,2013-04-22 03:13:00,
2013-04-21 21:28:00,61.2,13.0,29.78,NW,315,0.0,-999.0,15,-99.99,,,0.00,0,weatherlink.com 1.10,2013-04-22 03:28:00,
2013-04-21 21:43:00,60.5,12.0,29.78,NW,317,0.0,-999.0,15,-99.99,,,0.00,0,weatherlink.com 1.10,2013-04-22 03:43:00,
2013-04-21 21:58:00,59.5,13.0,29.78,NW,319,0.0,-999.0,16,-99.99,,,0.00,0,weatherlink.com 1.10,2013-04-22 03:58:00,
2013-04-21 22:14:00,59.4,13.0,29.79,NW,306,0.0,-999.0,16,-99.99,,,0.00,0,weatherlink.com 1.10,2013-04-22 04:14:00,
2013-04-21 22:29:00,59.2,13.0,29.79,NW,318,3.0,-999.0,16,-99.99,,,0.00,0,weatherlink.com 1.10,2013-04-22 04:29:00,
2013-04-21 22:44:00,58.7,12.0,29.79,NNW,331,1.0,-999.0,16,-99.99,,,0.00,0,weatherlink.com 1.10,2013-04-22 04:44:00,
2013-04-21 22:59:00,57.8,13.0,29.79,NNW,344,0.0,-999.0,17,-99.99,,,0.00,0,weatherlink.com 1.10,2013-04-22 04:59:00,
2013-04-21 23:14:00,55.9,13.0,29.79,NNW,344,0.0,-999.0,18,-99.99,,,0.00,0,weatherlink.com 1.10,2013-04-22 05:14:00,
2013-04-21 23:29:00,54.8,13.0,29.79,NNW,344,0.0,-999.0,19,-99.99,,,0.00,0,weatherlink.com 1.10,2013-04-22 05:29:00,
2013-04-21 23:44:00,53.9,12.0,29.79,NNW,344,0.0,-999.0,19,-99.99,,,0.00,0,weatherlink.com 1.10,2013-04-22 05:44:00,
2013-04-21 23:59:00,52.9,13.0,29.79,NNW,344,0.0,-999.0,20,-99.99,,,0.00,0,weatherlink.com 1.10,2013-04-22 05:59:00,